Terminal Aerodrome Forecast
Issued by NWS

Home | Current Version | Previous Version | Text Only | Print | Product List | Glossary On
Versions: 1 2 3 4 5 6 7 8 9 10 11 12 13 14 15 16 17 18
721
FTUS41 KPBZ 212328
TAFMGW
TAF
KMGW 212328Z 2200/2224 21005KT P6SM BKN010 OVC020
     FM220300 00000KT 5SM BR SCT150
     FM220600 00000KT 1SM BR SCT050
     FM221400 20004KT P6SM VCTS BKN060CB=

USA.gov is the U.S. government's official web portal to all federal, state and local government web resources and services.